Cameron Park Zoo Stampede

Age Group Results

November 12, 2016


Pro-Fit Event Services LLC


Men: Top Finishers 1-14 15-19 20-24 25-29 30-34 35-39 40-44 45-49 50-54 55-59 60-64 65-69 70-99
Women: Top Finishers 1-14 15-19 20-24 25-29 30-34 35-39 40-44 45-49 50-54 55-59 60-64 65-69

10K

Top

Female Open Winners

Place Name City Bib No Age Overall Total Time Pace
1 Camille McCue Harker Heights TX 121 35 6 44:56.8 7:15/M
Top

Male Open Winners

Place Name City Bib No Age Overall Total Time Pace
1 Iram Leon Austin TX 111 36 1 39:03.0 6:18/M
Top

Female Masters Winners

Place Name City Bib No Age Overall Total Time Pace
1 Christine Dixon Belton TX 78 55 22 52:07.6 8:24/M
Top

Male Masters Winners

Place Name City Bib No Age Overall Total Time Pace
1 Bill Schroeder Georgetown TX 146 54 2 39:44.5 6:25/M
Top

Female 14 and Under

Place Name City Bib No Age Overall Total Time Pace
1 Katy Martinez Franklin TX 119 14 44 56:54.4 9:11/M
2 Sydnie Catalina Franklin TX 67 14 110 1:11:58.5 11:36/M
Top

Male 14 and Under

Place Name City Bib No Age Overall Total Time Pace
1 Preston Smith Woodway TX 156 12 46 57:37.8 9:18/M
Top

Female 15 to 19

Place Name City Bib No Age Overall Total Time Pace
1 Madison Rohre Woodway TX 143 16 16 50:07.7 8:05/M
2 Erin Lawdermilk China Spring TX 108 18 131 1:18:49.9 12:43/M
3 Amy Stephens Gatesville TX 24 17 137 1:23:04.8 13:24/M
Top

Male 15 to 19

Place Name City Bib No Age Overall Total Time Pace
1 Darius Guerrero Waco TX 91 19 4 43:00.4 6:56/M
2 Chase Kirby Waco TX 106 18 21 52:02.0 8:24/M
3 Dylan Czaplinski San Antonio TX 11 17 129 1:18:19.5 12:38/M
4 Joe Trevino Gatesville TX 25 18 138 1:23:04.9 13:24/M
Top

Female 20 to 24

Place Name City Bib No Age Overall Total Time Pace
1 Jessica Mullins Gholson TX 131 23 23 52:13.7 8:25/M
2 Abigail Rodewald Waco TX 142 23 91 1:05:59.9 10:39/M
3 Katherine O'Connell New Braunfels TX 134 20 120 1:15:54.7 12:15/M
Top

Male 20 to 24

Place Name City Bib No Age Overall Total Time Pace
1 Thomas McCue Harker Heights TX 122 22 8 46:37.5 7:31/M
2 Dylan Kirby Waco TX 107 23 9 47:16.8 7:37/M
3 Trey Thomson Waco TX 26 22 90 1:05:56.2 10:38/M
4 Riley Mitchell New Braunfels TX 127 20 121 1:15:54.8 12:15/M
5 Daniel Earles Hewitt TX 81 20 126 1:17:40.0 12:32/M
6 Jesus Leon San Antonio TX 15 21 128 1:18:18.9 12:38/M
Top

Female 25 to 29

Place Name City Bib No Age Overall Total Time Pace
1 Lindsay Gummelt Waco TX 92 28 19 50:55.6 8:13/M
2 Chelsey Crye Lorena TX 72 26 24 52:17.1 8:26/M
3 Rachel Boehme Harker Heights TX 55 27 25 52:32.1 8:28/M
4 Jennifer Davis Waco TX 73 28 35 54:25.8 8:47/M
5 Felicia Smith Franklin TX 154 28 45 57:03.0 9:12/M
6 Tiffany Morrison Temple TX 130 29 58 59:30.0 9:36/M
7 Brandy Orris Russellton PA 136 28 72 1:02:21.6 10:03/M
8 Meredith Wilder Bryan TX 178 27 92 1:06:40.3 10:45/M
9 Caitlin Brown Waco TX 59 25 100 1:08:49.4 11:06/M
10 Estephany Escobar Waco TX 82 28 104 1:09:11.5 11:10/M
11 Anna Dick Temple TX 77 28 106 1:10:01.3 11:18/M
12 Kirsten Vandyke Temple TX 185 25 135 1:19:38.5 12:51/M
13 Rachel Rasmussen Woodway TX 141 26 136 1:19:45.1 12:52/M
14 Sara Warren China Spring TX 176 27 140 1:25:28.0 13:47/M
15 Jennifer Warren Waco TX 175 27 147 1:33:57.0 15:09/M
16 Lindsey Thiele Waco TX 163 25 148 1:35:19.7 15:22/M
17 Grace Richardson TX 46 28 154 1:48:30.0 17:30/M
Top

Male 25 to 29

Place Name City Bib No Age Overall Total Time Pace
1 Hermino Carrillo Waco TX 48 28 7 45:19.2 7:19/M
2 Mike Cervantez 199 28 11 47:49.1 7:43/M
3 Joshua Hays Hewitt TX 93 29 38 55:46.3 9:00/M
4 Ethan Brown Waco TX 61 25 56 59:11.5 9:33/M
5 Quaid Marruffo San Antonio TX 8 25 76 1:03:32.5 10:15/M
Top

Female 30 to 34

Place Name City Bib No Age Overall Total Time Pace
1 Mayra Orozco Killeen TX 135 33 40 56:05.7 9:03/M
2 Natalie Horton Fort Worth TX 97 31 50 58:18.6 9:24/M
3 Sarah Freeland 197 32 51 58:20.2 9:25/M
4 Caroline Wolf Waco TX 179 31 59 59:30.8 9:36/M
5 Jessica Assink Waco TX 180 30 63 1:00:10.6 9:42/M
6 Alicia Glanz Killeen TX 87 30 64 1:00:13.1 9:43/M
7 Heather Transou Jarrell TX 165 34 71 1:02:02.4 10:00/M
8 Laura Hopkins Waco TX 96 32 73 1:02:37.8 10:06/M
9 Jennifer Villalpando Mcgregor TX 170 31 77 1:03:57.6 10:19/M
10 Mary Smith Woodway TX 155 31 80 1:04:46.2 10:27/M
11 Brandi Carlton Killeen TX 64 31 81 1:04:49.5 10:27/M
12 Stephanie Isbell 196 30 99 1:08:17.5 11:01/M
13 Diana Novak Robinson TX 133 34 113 1:13:52.5 11:55/M
14 Julie Elliott Belton TX 181 32 115 1:14:29.2 12:01/M
Top

Male 30 to 34

Place Name City Bib No Age Overall Total Time Pace
1 Joe Juarez Woodway TX 100 30 3 40:10.8 6:29/M
2 Jessie Villalpando Mcgregor TX 171 33 5 44:26.0 7:10/M
3 Dealn Adams 188 33 15 49:59.9 8:04/M
4 Karl Kling 195 34 39 55:47.9 9:00/M
5 Max Rothbaum Temple TX 184 33 114 1:14:25.5 12:00/M
Top

Female 35 to 39

Place Name City Bib No Age Overall Total Time Pace
1 Julie Brannen Axtell TX 57 36 13 48:54.2 7:53/M
2 Tabitha Martel Waco TX 116 35 28 53:12.3 8:35/M
3 Annie Lobato Nolanville TX 113 35 36 55:02.4 8:53/M
4 Allie Fuller Belton TX 190 38 53 58:23.7 9:25/M
5 Amanda Niemeyer China Spring TX 132 36 54 58:43.2 9:28/M
6 Stephanie Meyer Waco TX 124 37 57 59:19.4 9:34/M
7 Cayce Connell Waco TX 69 35 65 1:00:26.0 9:45/M
8 Wyndi Kadlacek Riesel TX 101 37 69 1:01:31.7 9:55/M
9 Nicole Schwartinsky Waco TX 1255 37 70 1:01:47.6 9:58/M
10 Christi Tharpe Lorena TX 162 36 85 1:05:23.9 10:33/M
11 Dominique Brown Waco TX 60 36 86 1:05:28.5 10:34/M
12 Kanesha Moore Waco TX 128 38 87 1:05:32.8 10:34/M
13 Amanda Palomo San Marcos TX 32 38 97 1:07:36.4 10:54/M
14 Blanca Valdez Woodway TX 166 37 134 1:19:29.1 12:49/M
15 Deshauna Hollie Waco TX 95 35 143 1:26:37.8 13:58/M
16 Brandy Brown TX 38 36 150 1:40:22.0 16:11/M
Top

Male 35 to 39

Place Name City Bib No Age Overall Total Time Pace
1 Justin Venegas Hewitt TX 169 36 10 47:45.0 7:42/M
2 Adam Martel Waco TX 115 38 27 53:12.2 8:35/M
3 Curtis Quigley Mc Gregor TX 140 39 29 53:13.1 8:35/M
4 Ben Simpson Woodway TX 151 36 32 54:10.3 8:44/M
5 Jose Wallace Troy TX 172 39 55 59:05.1 9:32/M
6 Chris Helms Hutto TX 1 35 108 1:10:46.4 11:25/M
Top

Female 40 to 44

Place Name City Bib No Age Overall Total Time Pace
1 Sarah Morath Houston TX 129 40 26 52:42.8 8:30/M
2 Nicki Seidensticker Waco TX 149 43 37 55:27.3 8:57/M
3 Trisha Wallace Troy TX 173 40 41 56:13.5 9:04/M
4 Carrie Smith Woodway TX 153 40 47 57:40.4 9:18/M
5 Monica Rohre Woodway TX 144 43 62 1:00:04.9 9:41/M
6 Jennifer Crosby Kyle TX 3 40 75 1:03:31.5 10:15/M
7 Meredith Sutton 189 43 88 1:05:51.8 10:37/M
8 Janice Roberts 1256 43 101 1:08:52.2 11:06/M
9 Kristi Miller Belton TX 126 43 107 1:10:14.9 11:20/M
10 Nicole Catalina Franklin TX 66 44 117 1:15:26.5 12:10/M
11 Sara Sulak Hillsboro TX 158 40 119 1:15:50.6 12:14/M
12 Kari Davis Valley Mills TX 74 42 125 1:16:46.0 12:23/M
13 Cathy Portwood Waco TX 139 43 127 1:18:12.1 12:37/M
14 Christy Carr-Alleman Robinson TX 65 44 130 1:18:49.4 12:43/M
15 Kneeley Lawdermilk China Spring TX 109 41 132 1:18:50.4 12:43/M
Top

Male 40 to 44

Place Name City Bib No Age Overall Total Time Pace
1 Ed Lee Copperas Cove TX 110 44 30 54:00.3 8:43/M
2 Andy Martinez Ennis TX 118 40 48 58:03.2 9:22/M
3 Abraham Palomo San Marcos TX 33 41 96 1:07:36.4 10:54/M
4 Brian Alleman Robinson TX 52 44 98 1:08:06.4 10:59/M
Top

Female 45 to 49

Place Name City Bib No Age Overall Total Time Pace
1 Beth Howard Waco TX 98 49 60 59:50.7 9:39/M
2 Leonna Putnam Robinson TX 183 49 78 1:04:31.5 10:24/M
3 Becky Phillips Waco TX 138 47 84 1:05:15.7 10:31/M
4 Patricia Padron Elm Mott TX 137 46 123 1:16:36.5 12:21/M
5 Nancy Johnson TX 718 49 151 1:40:23.1 16:11/M
6 Karen Calvillo Hewitt TX 35 48 153 1:44:26.0 16:51/M
Top

Male 45 to 49

Place Name City Bib No Age Overall Total Time Pace
1 Jim Seidensticker Waco TX 148 45 18 50:49.5 8:12/M
2 Brian Harris Burleson TX 22 47 31 54:01.0 8:43/M
3 Stuart Lindland Fort Hood TX 112 46 42 56:31.3 9:07/M
4 David Marek Woodway TX 114 48 52 58:22.8 9:25/M
5 Jessie Moore 1253 48 61 59:51.9 9:39/M
6 Stephen Sloan Robinson TX 152 48 105 1:10:01.1 11:18/M
7 James Snyder Rosebud TX 157 48 111 1:12:26.0 11:41/M
Top

Female 50 to 54

Place Name City Bib No Age Overall Total Time Pace
1 Sandi Rains 193 54 33 54:11.4 8:44/M
2 Kimberly Velarde Killeen TX 167 53 66 1:00:34.8 9:46/M
3 Peggy Wayne Mc Gregor TX 177 51 74 1:02:49.5 10:08/M
4 Donna Marucci Bryan TX 120 54 93 1:06:40.6 10:45/M
5 Jasmine Khan Waco TX 105 51 95 1:07:22.3 10:52/M
6 Susie Crelia 192 54 112 1:13:39.7 11:53/M
7 Dianna Deleon Waco TX 76 50 139 1:23:40.4 13:30/M
8 Denise Gattis Mc Gregor TX 86 51 141 1:26:13.3 13:54/M
9 Cheryl Toups China Spring TX 164 53 145 1:28:13.8 14:14/M
10 Christine Bryant Hewitt TX 62 54 146 1:29:48.1 14:29/M
Top

Male 50 to 54

Place Name City Bib No Age Overall Total Time Pace
1 James Dixon Belton TX 79 53 12 48:02.3 7:45/M
2 Tommy Glockzin San Antonio TX 88 50 17 50:46.9 8:11/M
3 Michael Seiler Eddy TX 150 54 20 51:25.5 8:18/M
4 Todd Sword Woodway TX 161 52 49 58:17.1 9:24/M
5 Drew Hubbard Waco TX 99 54 67 1:00:55.0 9:50/M
6 Eli Daniel Southlake TX 4 51 68 1:01:24.7 9:54/M
7 Christopher Earles Hewitt TX 80 51 82 1:04:55.7 10:28/M
8 Alex Thomson Waco TX 51 53 89 1:05:56.1 10:38/M
9 Roger Velarde Killeen TX 168 51 94 1:06:54.1 10:47/M
Top

Female 55 to 59

Place Name City Bib No Age Overall Total Time Pace
1 Jolanta Miller Copperas Cove TX 125 55 79 1:04:32.7 10:25/M
2 Eileen Stephens Gatesville TX 23 57 83 1:05:01.1 10:29/M
3 Marjean Fahlenkamp Mcgregor TX 83 55 118 1:15:32.6 12:11/M
4 Connie Bright Waco TX 58 55 122 1:15:55.3 12:15/M
5 Rosemary Warlick Woodway TX 174 56 124 1:16:38.6 12:22/M
6 Karen Keeling Waco TX 102 55 149 1:35:19.7 15:22/M
Top

Male 55 to 59

Place Name City Bib No Age Overall Total Time Pace
1 Ronald Head 194 58 43 56:34.6 9:07/M
2 Jesse Calvillo Hewitt TX 36 56 152 1:44:25.9 16:50/M
Top

Female 60 to 64

Place Name City Bib No Age Overall Total Time Pace
1 Sandra Bigham Waco TX 54 63 102 1:09:03.4 11:08/M
2 Lou Ann Sanders Robinson TX 145 60 133 1:19:28.9 12:49/M
Top

Male 60 to 64

Place Name City Bib No Age Overall Total Time Pace
1 Eugenio Lugo Grapevine TX 182 60 14 49:34.3 8:00/M
2 Richard Goad Temple TX 89 61 116 1:14:56.9 12:05/M
3 Bobby Gattis Mc Gregor TX 85 60 142 1:26:15.2 13:55/M
Top

Female 65 to 69

Place Name City Bib No Age Overall Total Time Pace
1 Linda Garrett Eddy TX 84 65 103 1:09:03.5 11:08/M
2 Maria Cervantez 200 65 144 1:28:09.7 14:13/M
Top

Male 65 to 69

Place Name City Bib No Age Overall Total Time Pace
1 Pete Boulette Temple TX 56 68 34 54:25.6 8:47/M
Top

Male 70 and Over

Place Name City Bib No Age Overall Total Time Pace
1 Allen Budd 191 72 109 1:11:56.0 11:36/M